Time,TemperatureF,DewpointF,PressureIn,WindDirection,WindDirectionDegrees,WindSpeedMPH,WindSpeedGustMPH,Humidity,HourlyPrecipIn,Conditions,Clouds,dailyrainin,SolarRadiationWatts/m^2,SoftwareType,DateUTC
2014-03-02 00:00:00,70.7,62.4,29.86,South,182,10.0,21.0,75,0.00,,,0.00,0,Wunderground v.1.15,2014-03-02 06:00:00,
2014-03-02 00:05:00,70.6,62.3,29.87,SSW,200,10.0,21.0,75,0.00,,,0.00,0,Wunderground v.1.15,2014-03-02 06:05:00,
2014-03-02 00:15:00,70.5,62.2,29.87,SW,222,10.0,12.0,75,0.00,,,0.00,0,Wunderground v.1.15,2014-03-02 06:15:00,
2014-03-02 00:20:00,70.4,62.1,29.88,SSW,209,11.0,21.0,75,0.00,,,0.00,0,Wunderground v.1.15,2014-03-02 06:20:00,
2014-03-02 00:25:00,70.4,62.1,29.89,SSW,203,11.0,21.0,75,0.00,,,0.00,0,Wunderground v.1.15,2014-03-02 06:25:00,
2014-03-02 00:30:00,70.4,62.1,29.89,SW,217,11.0,21.0,75,0.00,,,0.00,0,Wunderground v.1.15,2014-03-02 06:30:00,
2014-03-02 00:35:00,70.3,62.0,29.88,SSE,164,10.0,21.0,75,0.00,,,0.00,0,Wunderground v.1.15,2014-03-02 06:35:00,
2014-03-02 00:40:00,70.2,62.3,29.88,SSW,192,9.0,9.0,76,0.00,,,0.00,0,Wunderground v.1.15,2014-03-02 06:40:00,
2014-03-02 00:50:00,70.2,62.3,29.89,West,261,6.0,21.0,76,0.00,,,0.00,0,Wunderground v.1.15,2014-03-02 06:50:00,
2014-03-02 00:55:00,70.1,62.2,29.89,SSW,211,2.0,21.0,76,0.00,,,0.00,0,Wunderground v.1.15,2014-03-02 06:55:00,
2014-03-02 01:00:00,70.1,62.2,29.88,SSW,202,1.0,21.0,76,0.00,,,0.00,0,Wunderground v.1.15,2014-03-02 07:00:00,
2014-03-02 01:10:00,69.9,62.0,29.89,SW,218,3.0,21.0,76,0.00,,,0.00,0,Wunderground v.1.15,2014-03-02 07:10:00,
2014-03-02 01:15:00,69.8,61.9,29.90,SW,226,3.0,21.0,76,0.00,,,0.00,0,Wunderground v.1.15,2014-03-02 07:15:00,
2014-03-02 01:20:00,69.8,62.3,29.90,West,261,3.0,21.0,77,0.00,,,0.00,0,Wunderground v.1.15,2014-03-02 07:20:00,
2014-03-02 01:25:00,69.7,62.2,29.91,WSW,258,3.0,21.0,77,0.00,,,0.00,0,Wunderground v.1.15,2014-03-02 07:25:00,
2014-03-02 01:30:00,69.7,62.2,29.91,West,267,4.0,21.0,77,0.00,,,0.00,0,Wunderground v.1.15,2014-03-02 07:30:00,
2014-03-02 01:40:00,65.6,53.9,29.92,NW,306,8.0,21.0,66,0.00,,,0.00,0,Wunderground v.1.15,2014-03-02 07:40:00,
2014-03-02 01:45:00,61.5,50.8,29.92,NNW,345,13.0,21.0,68,0.00,,,0.00,0,Wunderground v.1.15,2014-03-02 07:45:00,
2014-03-02 01:50:00,58.8,49.8,29.92,NNW,342,11.0,21.0,72,0.00,,,0.00,0,Wunderground v.1.15,2014-03-02 07:50:00,
2014-03-02 01:55:00,57.5,49.3,29.93,NW,306,10.0,21.0,74,0.00,,,0.00,0,Wunderground v.1.15,2014-03-02 07:55:00,
2014-03-02 02:00:00,56.0,48.2,29.94,NNW,331,11.0,11.0,75,0.00,,,0.00,0,Wunderground v.1.15,2014-03-02 08:00:00,
2014-03-02 02:05:00,54.3,46.5,29.95,NNW,341,12.0,15.0,75,0.00,,,0.00,0,Wunderground v.1.15,2014-03-02 08:05:00,
2014-03-02 02:15:00,51.1,44.8,29.94,NNW,344,13.0,21.0,79,0.00,,,0.00,0,Wunderground v.1.15,2014-03-02 08:15:00,
2014-03-02 02:20:00,50.1,43.8,29.95,NNE,12,12.0,12.0,79,0.00,,,0.00,0,Wunderground v.1.15,2014-03-02 08:20:00,
2014-03-02 02:25:00,48.7,42.5,29.96,NNW,336,12.0,18.0,79,0.00,,,0.00,0,Wunderground v.1.15,2014-03-02 08:25:00,
2014-03-02 02:30:00,47.1,40.9,29.96,WNW,299,14.0,14.0,79,0.00,,,0.00,0,Wunderground v.1.15,2014-03-02 08:30:00,
2014-03-02 02:35:00,45.6,39.5,29.98,NW,316,15.0,15.0,79,0.00,,,0.00,0,Wunderground v.1.15,2014-03-02 08:35:00,
2014-03-02 02:40:00,44.2,38.7,29.98,NW,317,13.0,13.0,81,0.00,,,0.00,0,Wunderground v.1.15,2014-03-02 08:40:00,
2014-03-02 02:50:00,42.4,37.6,29.98,NW,312,11.0,11.0,83,0.00,,,0.00,0,Wunderground v.1.15,2014-03-02 08:50:00,
2014-03-02 02:55:00,41.6,37.1,29.98,North,355,11.0,21.0,84,0.00,,,0.00,0,Wunderground v.1.15,2014-03-02 08:55:00,
2014-03-02 03:00:00,40.9,36.7,29.99,NNW,336,11.0,21.0,85,0.00,,,0.00,0,Wunderground v.1.15,2014-03-02 09:00:00,
2014-03-02 03:05:00,40.3,36.4,29.99,NNW,327,11.0,24.0,86,0.00,,,0.00,0,Wunderground v.1.15,2014-03-02 09:05:00,
2014-03-02 03:10:00,39.6,35.8,29.98,NNW,344,13.0,13.0,86,0.00,,,0.00,0,Wunderground v.1.15,2014-03-02 09:10:00,
2014-03-02 03:15:00,39.0,35.5,29.99,NW,319,12.0,21.0,87,0.00,,,0.00,0,Wunderground v.1.15,2014-03-02 09:15:00,
2014-03-02 03:25:00,38.5,35.3,30.00,NNW,333,12.0,21.0,88,0.00,,,0.00,0,Wunderground v.1.15,2014-03-02 09:25:00,
2014-03-02 03:30:00,38.2,35.0,29.99,North,355,10.0,21.0,88,0.00,,,0.00,0,Wunderground v.1.15,2014-03-02 09:30:00,
2014-03-02 03:35:00,37.5,34.6,30.00,WNW,299,11.0,21.0,89,0.00,,,0.00,0,Wunderground v.1.15,2014-03-02 09:35:00,
2014-03-02 03:40:00,37.0,34.1,30.00,North,355,12.0,21.0,89,0.00,,,0.00,0,Wunderground v.1.15,2014-03-02 09:40:00,
2014-03-02 03:45:00,36.6,33.7,30.00,NW,309,12.0,21.0,89,0.00,,,0.00,0,Wunderground v.1.15,2014-03-02 09:45:00,
2014-03-02 03:50:00,36.1,33.5,30.01,North,11,13.0,13.0,90,0.00,,,0.00,0,Wunderground v.1.15,2014-03-02 09:50:00,
2014-03-02 03:55:00,35.5,32.9,30.00,NNW,331,14.0,14.0,90,0.00,,,0.00,0,Wunderground v.1.15,2014-03-02 09:55:00,
2014-03-02 04:05:00,34.4,31.8,30.01,NW,317,14.0,21.0,90,0.00,,,0.00,0,Wunderground v.1.15,2014-03-02 10:05:00,
2014-03-02 04:10:00,33.9,31.3,30.01,NW,316,13.0,21.0,90,0.00,,,0.00,0,Wunderground v.1.15,2014-03-02 10:10:00,
2014-03-02 04:15:00,33.5,30.9,30.01,NNW,339,13.0,21.0,90,0.00,,,0.00,0,Wunderground v.1.15,2014-03-02 10:15:00,
2014-03-02 04:20:00,33.3,31.0,30.02,NW,321,14.0,14.0,91,0.00,,,0.00,0,Wunderground v.1.15,2014-03-02 10:20:00,
2014-03-02 04:25:00,33.1,30.8,30.02,North,360,13.0,15.0,91,0.00,,,0.00,0,Wunderground v.1.15,2014-03-02 10:25:00,
2014-03-02 04:30:00,32.7,30.4,30.02,NNW,331,13.0,21.0,91,0.00,,,0.00,0,Wunderground v.1.15,2014-03-02 10:30:00,
2014-03-02 04:40:00,32.0,29.7,30.03,NW,325,12.0,21.0,91,0.00,,,0.00,0,Wunderground v.1.15,2014-03-02 10:40:00,
2014-03-02 04:50:00,31.4,29.1,30.02,ENE,63,12.0,12.0,91,0.00,,,0.00,0,Wunderground v.1.15,2014-03-02 10:50:00,
2014-03-02 04:55:00,31.1,28.8,30.03,North,355,13.0,13.0,91,0.00,,,0.00,0,Wunderground v.1.15,2014-03-02 10:55:00,
2014-03-02 05:00:00,31.0,28.7,30.03,North,355,13.0,21.0,91,0.00,,,0.00,0,Wunderground v.1.15,2014-03-02 11:00:00,
2014-03-02 05:05:00,30.6,28.3,30.03,NW,325,14.0,21.0,91,0.00,,,0.00,0,Wunderground v.1.15,2014-03-02 11:05:00,
2014-03-02 05:15:00,30.2,27.9,30.04,NNW,336,13.0,21.0,91,0.00,,,0.00,0,Wunderground v.1.15,2014-03-02 11:15:00,
2014-03-02 05:20:00,29.9,27.6,30.03,North,355,15.0,21.0,91,0.00,,,0.00,0,Wunderground v.1.15,2014-03-02 11:20:00,
2014-03-02 05:25:00,29.8,27.8,30.04,NNW,343,15.0,21.0,92,0.00,,,0.00,0,Wunderground v.1.15,2014-03-02 11:25:00,
2014-03-02 05:30:00,29.7,27.7,30.05,North,355,13.0,21.0,92,0.00,,,0.00,0,Wunderground v.1.15,2014-03-02 11:30:00,
2014-03-02 05:35:00,29.6,27.6,30.05,NNW,339,12.0,21.0,92,0.00,,,0.00,0,Wunderground v.1.15,2014-03-02 11:35:00,
2014-03-02 05:40:00,29.0,27.0,30.05,North,355,13.0,21.0,92,0.00,,,0.00,0,Wunderground v.1.15,2014-03-02 11:40:00,
2014-03-02 05:50:00,28.4,26.4,30.06,NNW,340,13.0,21.0,92,0.00,,,0.00,0,Wunderground v.1.15,2014-03-02 11:50:00,
2014-03-02 05:55:00,28.3,26.3,30.07,NNW,327,14.0,21.0,92,0.00,,,0.00,0,Wunderground v.1.15,2014-03-02 11:55:00,
2014-03-02 06:00:00,28.3,26.3,30.07,NE,39,13.0,13.0,92,0.00,,,0.00,0,Wunderground v.1.15,2014-03-02 12:00:00,
2014-03-02 06:05:00,28.2,26.2,30.07,NNW,341,13.0,21.0,92,0.00,,,0.00,0,Wunderground v.1.15,2014-03-02 12:05:00,
2014-03-02 06:10:00,28.2,26.2,30.07,WNW,290,13.0,21.0,92,0.00,,,0.00,0,Wunderground v.1.15,2014-03-02 12:10:00,
2014-03-02 06:15:00,28.2,26.2,30.08,NW,321,12.0,21.0,92,0.00,,,0.00,0,Wunderground v.1.15,2014-03-02 12:15:00,
2014-03-02 06:25:00,28.1,26.1,30.08,NNW,330,12.0,12.0,92,0.00,,,0.00,0,Wunderground v.1.15,2014-03-02 12:25:00,
2014-03-02 06:30:00,28.1,26.1,30.08,North,351,12.0,12.0,92,0.00,,,0.00,0,Wunderground v.1.15,2014-03-02 12:30:00,
2014-03-02 06:35:00,28.0,26.0,30.08,NNW,340,11.0,21.0,92,0.00,,,0.00,0,Wunderground v.1.15,2014-03-02 12:35:00,
2014-03-02 06:40:00,28.0,26.0,30.08,WNW,296,11.0,11.0,92,0.00,,,0.00,0,Wunderground v.1.15,2014-03-02 12:40:00,
2014-03-02 06:45:00,28.0,26.2,30.08,NW,310,12.0,12.0,93,0.00,,,0.00,0,Wunderground v.1.15,2014-03-02 12:45:00,
2014-03-02 06:50:00,27.9,26.1,30.09,NNW,327,11.0,11.0,93,0.00,,,0.00,0,Wunderground v.1.15,2014-03-02 12:50:00,
2014-03-02 07:00:00,27.9,26.1,30.09,NNW,343,12.0,21.0,93,0.00,,,0.00,0,Wunderground v.1.15,2014-03-02 13:00:00,
2014-03-02 07:05:00,27.9,26.1,30.09,NNW,330,13.0,21.0,93,0.00,,,0.00,0,Wunderground v.1.15,2014-03-02 13:05:00,
2014-03-02 07:10:00,27.9,26.1,30.09,NNW,339,13.0,21.0,93,0.00,,,0.00,0,Wunderground v.1.15,2014-03-02 13:10:00,
2014-03-02 07:15:00,27.9,26.1,30.09,WNW,300,13.0,21.0,93,0.00,,,0.00,0,Wunderground v.1.15,2014-03-02 13:15:00,
2014-03-02 07:20:00,28.0,26.2,30.09,North,10,13.0,21.0,93,0.00,,,0.00,0,Wunderground v.1.15,2014-03-02 13:20:00,
2014-03-02 07:25:00,28.0,26.2,30.09,NNW,346,10.0,21.0,93,0.00,,,0.00,0,Wunderground v.1.15,2014-03-02 13:25:00,
2014-03-02 07:35:00,27.8,26.0,30.10,North,350,12.0,19.0,93,0.00,,,0.00,0,Wunderground v.1.15,2014-03-02 13:35:00,
2014-03-02 07:40:00,27.6,25.8,30.10,NNW,331,14.0,21.0,93,0.00,,,0.00,5,Wunderground v.1.15,2014-03-02 13:40:00,
2014-03-02 07:45:00,27.5,25.7,30.10,NNW,346,14.0,21.0,93,0.00,,,0.00,0,Wunderground v.1.15,2014-03-02 13:45:00,
2014-03-02 07:50:00,27.5,25.7,30.10,NNW,342,14.0,21.0,93,0.00,,,0.00,5,Wunderground v.1.15,2014-03-02 13:50:00,
2014-03-02 07:55:00,27.5,25.7,30.10,NNW,333,13.0,21.0,93,0.00,,,0.00,5,Wunderground v.1.15,2014-03-02 13:55:00,
2014-03-02 08:00:00,27.4,25.6,30.11,NNW,327,13.0,13.0,93,0.00,,,0.00,5,Wunderground v.1.15,2014-03-02 14:00:00,
2014-03-02 08:10:00,27.5,25.7,30.11,NW,307,11.0,11.0,93,0.00,,,0.00,5,Wunderground v.1.15,2014-03-02 14:10:00,
2014-03-02 08:15:00,27.6,25.8,30.10,NNE,20,10.0,21.0,93,0.00,,,0.00,0,Wunderground v.1.15,2014-03-02 14:15:00,
2014-03-02 08:20:00,27.3,25.5,30.11,NNW,337,12.0,21.0,93,0.00,,,0.00,5,Wunderground v.1.15,2014-03-02 14:20:00,
2014-03-02 08:25:00,27.1,25.3,30.11,NNW,346,12.0,21.0,93,0.00,,,0.00,9,Wunderground v.1.15,2014-03-02 14:25:00,
2014-03-02 08:30:00,27.0,25.2,30.13,NW,308,12.0,21.0,93,0.00,,,0.00,9,Wunderground v.1.15,2014-03-02 14:30:00,
2014-03-02 08:35:00,27.0,25.2,30.13,NNW,340,12.0,21.0,93,0.00,,,0.00,9,Wunderground v.1.15,2014-03-02 14:35:00,
2014-03-02 08:45:00,26.8,25.0,30.13,NNW,341,13.0,21.0,93,0.00,,,0.00,21,Wunderground v.1.15,2014-03-02 14:45:00,
2014-03-02 08:50:00,26.9,25.1,30.12,NNW,333,13.0,13.0,93,0.00,,,0.00,26,Wunderground v.1.15,2014-03-02 14:50:00,
2014-03-02 08:55:00,26.6,24.8,30.12,NW,313,12.0,21.0,93,0.00,,,0.00,23,Wunderground v.1.15,2014-03-02 14:55:00,
2014-03-02 09:00:00,26.4,24.7,30.13,North,5,12.0,21.0,93,0.00,,,0.00,35,Wunderground v.1.15,2014-03-02 15:00:00,
2014-03-02 09:05:00,26.0,24.3,30.13,North,350,13.0,21.0,93,0.00,,,0.00,25,Wunderground v.1.15,2014-03-02 15:05:00,
2014-03-02 09:15:00,25.7,24.0,30.13,NNW,327,13.0,21.0,93,0.00,,,0.00,35,Wunderground v.1.15,2014-03-02 15:15:00,
2014-03-02 09:20:00,25.6,23.9,30.13,North,350,12.0,21.0,93,0.00,,,0.00,30,Wunderground v.1.15,2014-03-02 15:20:00,
2014-03-02 09:25:00,25.5,23.8,30.14,North,360,13.0,21.0,93,0.00,,,0.00,28,Wunderground v.1.15,2014-03-02 15:25:00,
2014-03-02 09:30:00,25.6,23.9,30.14,NW,318,12.0,21.0,93,0.00,,,0.00,37,Wunderground v.1.15,2014-03-02 15:30:00,
2014-03-02 09:35:00,25.3,23.3,30.14,NW,313,11.0,21.0,92,0.00,,,0.00,25,Wunderground v.1.15,2014-03-02 15:35:00,
2014-03-02 09:40:00,25.1,23.1,30.14,North,350,12.0,21.0,92,0.00,,,0.00,28,Wunderground v.1.15,2014-03-02 15:40:00,
2014-03-02 09:50:00,25.1,23.1,30.14,North,5,10.0,10.0,92,0.00,,,0.00,30,Wunderground v.1.15,2014-03-02 15:50:00,
2014-03-02 09:55:00,25.1,23.1,30.14,North,355,9.0,16.0,92,0.00,,,0.00,37,Wunderground v.1.15,2014-03-02 15:55:00,
2014-03-02 10:00:00,25.0,23.0,30.14,NNW,335,11.0,11.0,92,0.00,,,0.00,18,Wunderground v.1.15,2014-03-02 16:00:00,
2014-03-02 10:05:00,25.1,23.1,30.14,NNW,335,10.0,21.0,92,0.00,,,0.00,14,Wunderground v.1.15,2014-03-02 16:05:00,
2014-03-02 10:10:00,25.1,23.1,30.14,North,5,9.0,21.0,92,0.00,,,0.00,23,Wunderground v.1.15,2014-03-02 16:10:00,
2014-03-02 10:15:00,24.9,22.9,30.14,NNW,338,10.0,21.0,92,0.00,,,0.00,26,Wunderground v.1.15,2014-03-02 16:15:00,
2014-03-02 10:25:00,24.6,22.6,30.14,NNW,334,11.0,13.0,92,0.00,,,0.00,40,Wunderground v.1.15,2014-03-02 16:25:00,
2014-03-02 10:30:00,24.3,22.3,30.14,NNW,339,11.0,11.0,92,0.00,,,0.00,33,Wunderground v.1.15,2014-03-02 16:30:00,
2014-03-02 10:35:00,24.2,22.2,30.15,NW,315,11.0,16.0,92,0.00,,,0.00,35,Wunderground v.1.15,2014-03-02 16:35:00,
2014-03-02 10:40:00,23.9,21.9,30.14,NNW,334,12.0,21.0,92,0.00,,,0.00,37,Wunderground v.1.15,2014-03-02 16:40:00,
2014-03-02 10:45:00,23.8,21.8,30.15,NW,319,13.0,21.0,92,0.00,,,0.00,30,Wunderground v.1.15,2014-03-02 16:45:00,
2014-03-02 10:50:00,23.6,21.6,30.15,NNW,342,12.0,21.0,92,0.00,,,0.00,60,Wunderground v.1.15,2014-03-02 16:50:00,
2014-03-02 11:00:00,23.2,21.2,30.14,NW,305,12.0,12.0,92,0.00,,,0.00,49,Wunderground v.1.15,2014-03-02 17:00:00,
2014-03-02 11:05:00,23.2,21.2,30.15,NNW,337,12.0,21.0,92,0.00,,,0.00,46,Wunderground v.1.15,2014-03-02 17:05:00,
2014-03-02 11:10:00,23.2,21.2,30.14,NW,326,10.0,21.0,92,0.00,,,0.00,60,Wunderground v.1.15,2014-03-02 17:10:00,
2014-03-02 11:15:00,23.2,21.2,30.15,NNW,340,11.0,21.0,92,0.00,,,0.00,32,Wunderground v.1.15,2014-03-02 17:15:00,
2014-03-02 11:20:00,23.1,21.1,30.15,North,355,11.0,21.0,92,0.00,,,0.00,37,Wunderground v.1.15,2014-03-02 17:20:00,
2014-03-02 11:25:00,23.1,21.1,30.16,NNW,347,10.0,21.0,92,0.00,,,0.00,53,Wunderground v.1.15,2014-03-02 17:25:00,
2014-03-02 11:30:00,23.0,21.0,30.16,NW,319,10.0,10.0,92,0.00,,,0.00,40,Wunderground v.1.15,2014-03-02 17:30:00,
2014-03-02 11:40:00,22.5,20.5,30.15,NNW,341,10.0,10.0,92,0.00,,,0.00,58,Wunderground v.1.15,2014-03-02 17:40:00,
2014-03-02 11:45:00,22.2,20.2,30.15,NW,317,11.0,11.0,92,0.00,,,0.00,70,Wunderground v.1.15,2014-03-02 17:45:00,
2014-03-02 11:50:00,22.1,20.1,30.15,NNE,13,11.0,11.0,92,0.00,,,0.00,51,Wunderground v.1.15,2014-03-02 17:50:00,
2014-03-02 11:55:00,22.0,20.0,30.14,NNE,24,11.0,13.0,92,0.00,,,0.00,51,Wunderground v.1.15,2014-03-02 17:55:00,
2014-03-02 12:00:00,21.7,19.7,30.14,NNW,341,12.0,21.0,92,0.00,,,0.00,65,Wunderground v.1.15,2014-03-02 18:00:00,
2014-03-02 12:05:00,21.6,19.6,30.15,NW,319,13.0,21.0,92,0.00,,,0.00,79,Wunderground v.1.15,2014-03-02 18:05:00,
2014-03-02 12:15:00,21.6,19.6,30.15,North,5,12.0,21.0,92,0.00,,,0.00,72,Wunderground v.1.15,2014-03-02 18:15:00,
2014-03-02 12:20:00,21.5,19.5,30.15,North,5,13.0,13.0,92,0.00,,,0.00,47,Wunderground v.1.15,2014-03-02 18:20:00,
2014-03-02 12:25:00,21.5,19.5,30.15,NNW,331,13.0,21.0,92,0.00,,,0.00,42,Wunderground v.1.15,2014-03-02 18:25:00,
2014-03-02 12:30:00,21.6,19.9,30.15,NNW,344,12.0,12.0,93,0.00,,,0.00,51,Wunderground v.1.15,2014-03-02 18:30:00,
2014-03-02 12:35:00,21.6,19.9,30.14,NW,325,11.0,21.0,93,0.00,,,0.00,47,Wunderground v.1.15,2014-03-02 18:35:00,
2014-03-02 12:40:00,21.8,20.1,30.14,NW,308,11.0,21.0,93,0.00,,,0.00,58,Wunderground v.1.15,2014-03-02 18:40:00,
2014-03-02 12:50:00,21.7,19.7,30.13,NW,319,12.0,21.0,92,0.00,,,0.00,91,Wunderground v.1.15,2014-03-02 18:50:00,
2014-03-02 12:55:00,21.3,19.3,30.14,WNW,284,14.0,21.0,92,0.00,,,0.00,79,Wunderground v.1.15,2014-03-02 18:55:00,
2014-03-02 13:00:00,21.1,19.1,30.15,North,355,15.0,21.0,92,0.00,,,0.00,63,Wunderground v.1.15,2014-03-02 19:00:00,
2014-03-02 13:05:00,21.1,19.4,30.15,NNW,347,13.0,21.0,93,0.00,,,0.00,56,Wunderground v.1.15,2014-03-02 19:05:00,
2014-03-02 13:10:00,20.7,18.7,30.15,North,5,14.0,14.0,92,0.00,,,0.00,86,Wunderground v.1.15,2014-03-02 19:10:00,
2014-03-02 13:15:00,20.3,18.3,30.14,NNW,336,16.0,16.0,92,0.00,,,0.00,67,Wunderground v.1.15,2014-03-02 19:15:00,
2014-03-02 13:25:00,20.3,18.3,30.15,NW,306,15.0,16.0,92,0.00,,,0.00,47,Wunderground v.1.15,2014-03-02 19:25:00,
2014-03-02 13:30:00,20.3,18.3,30.15,NNW,329,14.0,21.0,92,0.00,,,0.00,53,Wunderground v.1.15,2014-03-02 19:30:00,
2014-03-02 13:35:00,20.2,18.2,30.15,NW,323,15.0,21.0,92,0.00,,,0.00,62,Wunderground v.1.15,2014-03-02 19:35:00,
2014-03-02 13:40:00,20.0,18.1,30.14,NNE,13,17.0,21.0,92,0.00,,,0.00,79,Wunderground v.1.15,2014-03-02 19:40:00,
2014-03-02 13:45:00,20.0,18.1,30.15,NNW,343,16.0,21.0,92,0.00,,,0.00,44,Wunderground v.1.15,2014-03-02 19:45:00,
2014-03-02 13:50:00,20.0,18.1,30.16,NNW,327,13.0,13.0,92,0.00,,,0.00,30,Wunderground v.1.15,2014-03-02 19:50:00,
2014-03-02 14:00:00,20.1,17.9,30.15,NNW,329,14.0,14.0,91,0.00,,,0.00,53,Wunderground v.1.15,2014-03-02 20:00:00,
2014-03-02 14:10:00,20.3,18.1,30.15,NW,312,13.0,13.0,91,0.00,,,0.00,53,Wunderground v.1.15,2014-03-02 20:10:00,
2014-03-02 14:15:00,20.3,18.1,30.16,WNW,302,14.0,16.0,91,0.00,,,0.00,60,Wunderground v.1.15,2014-03-02 20:15:00,
2014-03-02 14:20:00,20.3,17.8,30.16,NW,323,16.0,16.0,90,0.00,,,0.00,54,Wunderground v.1.15,2014-03-02 20:20:00,
2014-03-02 14:30:00,20.3,17.8,30.17,NNW,334,14.0,17.0,90,0.00,,,0.00,62,Wunderground v.1.15,2014-03-02 20:30:00,
2014-03-02 14:35:00,20.4,17.9,30.17,WNW,298,16.0,23.0,90,0.00,,,0.00,77,Wunderground v.1.15,2014-03-02 20:35:00,
2014-03-02 14:40:00,20.5,18.0,30.16,NNE,19,15.0,15.0,90,0.00,,,0.00,90,Wunderground v.1.15,2014-03-02 20:40:00,
2014-03-02 14:45:00,20.7,18.2,30.16,NW,316,14.0,17.0,90,0.00,,,0.00,83,Wunderground v.1.15,2014-03-02 20:45:00,
2014-03-02 14:50:00,20.6,17.9,30.16,NNW,348,16.0,16.0,89,0.00,,,0.00,100,Wunderground v.1.15,2014-03-02 20:50:00,
2014-03-02 15:00:00,20.6,17.9,30.17,NW,313,18.0,18.0,89,0.00,,,0.00,79,Wunderground v.1.15,2014-03-02 21:00:00,
2014-03-02 15:05:00,20.6,17.9,30.16,NW,325,17.0,26.0,89,0.00,,,0.00,76,Wunderground v.1.15,2014-03-02 21:05:00,
2014-03-02 15:10:00,20.7,18.0,30.17,NNW,327,17.0,17.0,89,0.00,,,0.00,102,Wunderground v.1.15,2014-03-02 21:10:00,
2014-03-02 15:15:00,21.1,18.6,30.18,NW,309,14.0,26.0,90,0.00,,,0.00,63,Wunderground v.1.15,2014-03-02 21:15:00,
2014-03-02 15:20:00,21.2,18.7,30.17,NNW,333,13.0,26.0,90,0.00,,,0.00,125,Wunderground v.1.15,2014-03-02 21:20:00,
2014-03-02 15:30:00,21.3,18.6,30.18,NW,311,15.0,26.0,89,0.00,,,0.00,104,Wunderground v.1.15,2014-03-02 21:30:00,
2014-03-02 15:35:00,21.1,17.8,30.18,NW,311,17.0,26.0,87,0.00,,,0.00,72,Wunderground v.1.15,2014-03-02 21:35:00,
2014-03-02 15:40:00,21.1,17.6,30.18,NNW,336,18.0,26.0,86,0.00,,,0.00,167,Wunderground v.1.15,2014-03-02 21:40:00,
2014-03-02 15:45:00,21.2,17.9,30.18,NW,311,17.0,26.0,87,0.00,,,0.00,107,Wunderground v.1.15,2014-03-02 21:45:00,
2014-03-02 15:50:00,21.3,18.0,30.18,WNW,295,16.0,26.0,87,0.00,,,0.00,69,Wunderground v.1.15,2014-03-02 21:50:00,
2014-03-02 15:55:00,21.2,17.9,30.18,NW,305,14.0,26.0,87,0.00,,,0.00,109,Wunderground v.1.15,2014-03-02 21:55:00,
2014-03-02 16:00:00,21.2,17.7,30.19,NNW,340,14.0,14.0,86,0.00,,,0.00,53,Wunderground v.1.15,2014-03-02 22:00:00,
2014-03-02 16:10:00,20.8,17.0,30.19,NW,311,17.0,26.0,85,0.00,,,0.00,51,Wunderground v.1.15,2014-03-02 22:10:00,
2014-03-02 16:15:00,20.8,17.3,30.19,NNW,333,15.0,26.0,86,0.00,,,0.00,67,Wunderground v.1.15,2014-03-02 22:15:00,
2014-03-02 16:20:00,20.6,16.8,30.19,NW,308,16.0,26.0,85,0.00,,,0.00,83,Wunderground v.1.15,2014-03-02 22:20:00,
2014-03-02 16:25:00,20.5,17.0,30.18,NNW,330,13.0,26.0,86,0.00,,,0.00,16,Wunderground v.1.15,2014-03-02 22:25:00,
2014-03-02 16:30:00,20.4,16.9,30.18,NNW,340,11.0,11.0,86,0.00,,,0.00,26,Wunderground v.1.15,2014-03-02 22:30:00,
2014-03-02 16:40:00,20.4,16.6,30.17,NNW,347,13.0,13.0,85,0.00,,,0.00,54,Wunderground v.1.15,2014-03-02 22:40:00,
2014-03-02 16:45:00,20.6,17.1,30.18,NNE,16,11.0,26.0,86,0.00,,,0.00,72,Wunderground v.1.15,2014-03-02 22:45:00,
2014-03-02 16:50:00,20.7,17.2,30.18,NNW,342,10.0,26.0,86,0.00,,,0.00,134,Wunderground v.1.15,2014-03-02 22:50:00,
2014-03-02 16:55:00,21.0,17.5,30.18,NNW,344,11.0,26.0,86,0.00,,,0.00,113,Wunderground v.1.15,2014-03-02 22:55:00,
2014-03-02 17:00:00,21.5,18.2,30.19,North,9,9.0,9.0,87,0.00,,,0.00,244,Wunderground v.1.15,2014-03-02 23:00:00,
2014-03-02 17:10:00,21.8,18.0,30.19,NNW,345,11.0,26.0,85,0.00,,,0.00,135,Wunderground v.1.15,2014-03-02 23:10:00,
2014-03-02 17:15:00,21.7,18.2,30.19,NNW,341,11.0,26.0,86,0.00,,,0.00,93,Wunderground v.1.15,2014-03-02 23:15:00,
2014-03-02 17:20:00,21.8,18.3,30.20,NNW,336,11.0,26.0,86,0.00,,,0.00,81,Wunderground v.1.15,2014-03-02 23:20:00,
2014-03-02 17:25:00,21.6,17.8,30.21,NNW,328,11.0,26.0,85,0.00,,,0.00,88,Wunderground v.1.15,2014-03-02 23:25:00,
2014-03-02 17:30:00,21.7,18.2,30.21,North,349,12.0,26.0,86,0.00,,,0.00,67,Wunderground v.1.15,2014-03-02 23:30:00,
2014-03-02 17:40:00,21.3,17.8,30.21,NW,313,14.0,14.0,86,0.00,,,0.00,49,Wunderground v.1.15,2014-03-02 23:40:00,
2014-03-02 17:45:00,21.4,17.9,30.19,NNW,345,12.0,26.0,86,0.00,,,0.00,44,Wunderground v.1.15,2014-03-02 23:45:00,
2014-03-02 17:50:00,21.3,17.5,30.18,NNW,340,11.0,26.0,85,0.00,,,0.00,70,Wunderground v.1.15,2014-03-02 23:50:00,
2014-03-02 17:55:00,21.2,17.4,30.16,NNE,21,13.0,26.0,85,0.00,,,0.00,44,Wunderground v.1.15,2014-03-02 23:55:00,
2014-03-02 18:00:00,21.1,17.3,30.16,NNE,13,12.0,12.0,85,0.00,,,0.00,26,Wunderground v.1.15,2014-03-03 00:00:00,
2014-03-02 18:05:00,21.0,17.2,30.21,NW,315,11.0,26.0,85,0.00,,,0.00,23,Wunderground v.1.15,2014-03-03 00:05:00,
2014-03-02 18:15:00,20.8,16.7,30.21,NNE,24,13.0,26.0,84,0.00,,,0.00,11,Wunderground v.1.15,2014-03-03 00:15:00,
2014-03-02 18:20:00,20.7,16.6,30.19,North,355,12.0,26.0,84,0.00,,,0.00,7,Wunderground v.1.15,2014-03-03 00:20:00,
2014-03-02 18:25:00,20.6,16.5,30.18,WNW,292,12.0,26.0,84,0.00,,,0.00,0,Wunderground v.1.15,2014-03-03 00:25:00,
2014-03-02 18:30:00,20.7,16.9,30.25,NW,323,12.0,26.0,85,0.00,,,0.00,0,Wunderground v.1.15,2014-03-03 00:30:00,
2014-03-02 18:40:00,20.8,17.0,30.25,NNW,342,12.0,12.0,85,0.00,,,0.00,0,Wunderground v.1.15,2014-03-03 00:40:00,
2014-03-02 18:45:00,20.8,17.0,30.24,NNW,332,10.0,16.0,85,0.00,,,0.00,0,Wunderground v.1.15,2014-03-03 00:45:00,
2014-03-02 18:50:00,20.5,16.4,30.24,NNE,15,12.0,12.0,84,0.00,,,0.00,0,Wunderground v.1.15,2014-03-03 00:50:00,
2014-03-02 18:55:00,20.2,16.1,30.24,North,360,14.0,14.0,84,0.00,,,0.00,0,Wunderground v.1.15,2014-03-03 00:55:00,
2014-03-02 19:00:00,20.1,16.0,30.26,NNW,335,13.0,13.0,84,0.00,,,0.00,0,Wunderground v.1.15,2014-03-03 01:00:00,
2014-03-02 19:10:00,19.9,15.8,30.27,NNW,329,14.0,26.0,84,0.00,,,0.00,0,Wunderground v.1.15,2014-03-03 01:10:00,
2014-03-02 19:15:00,19.9,15.8,30.27,North,5,14.0,26.0,84,0.00,,,0.00,0,Wunderground v.1.15,2014-03-03 01:15:00,
2014-03-02 19:20:00,19.7,15.4,30.28,NNW,328,15.0,26.0,83,0.00,,,0.00,0,Wunderground v.1.15,2014-03-03 01:20:00,
2014-03-02 19:25:00,19.7,15.4,30.28,NNW,340,15.0,26.0,83,0.00,,,0.00,0,Wunderground v.1.15,2014-03-03 01:25:00,
2014-03-02 19:30:00,19.6,15.3,30.28,North,360,15.0,15.0,83,0.00,,,0.00,0,Wunderground v.1.15,2014-03-03 01:30:00,
2014-03-02 19:35:00,19.6,15.3,30.28,NW,314,14.0,18.0,83,0.00,,,0.00,0,Wunderground v.1.15,2014-03-03 01:35:00,
2014-03-02 19:45:00,19.5,15.2,30.29,NNW,333,14.0,14.0,83,0.00,,,0.00,0,Wunderground v.1.15,2014-03-03 01:45:00,
2014-03-02 19:50:00,19.4,15.1,30.30,NNW,333,14.0,14.0,83,0.00,,,0.00,0,Wunderground v.1.15,2014-03-03 01:50:00,
2014-03-02 19:55:00,19.5,15.5,30.30,NW,323,12.0,18.0,84,0.00,,,0.00,0,Wunderground v.1.15,2014-03-03 01:55:00,
2014-03-02 20:00:00,19.5,15.5,30.30,NW,320,11.0,11.0,84,0.00,,,0.00,0,Wunderground v.1.15,2014-03-03 02:00:00,
2014-03-02 20:10:00,19.4,15.4,30.30,North,355,14.0,14.0,84,0.00,,,0.00,0,Wunderground v.1.15,2014-03-03 02:10:00,
2014-03-02 20:15:00,19.3,15.0,30.30,NW,304,14.0,26.0,83,0.00,,,0.00,0,Wunderground v.1.15,2014-03-03 02:15:00,
2014-03-02 20:20:00,19.2,14.9,30.31,NW,325,14.0,26.0,83,0.00,,,0.00,0,Wunderground v.1.15,2014-03-03 02:20:00,
2014-03-02 20:25:00,19.2,15.2,30.32,NNW,333,14.0,26.0,84,0.00,,,0.00,0,Wunderground v.1.15,2014-03-03 02:25:00,
2014-03-02 20:30:00,19.3,15.3,30.32,WNW,296,14.0,14.0,84,0.00,,,0.00,0,Wunderground v.1.15,2014-03-03 02:30:00,
2014-03-02 20:40:00,19.2,14.9,30.32,NW,313,16.0,16.0,83,0.00,,,0.00,0,Wunderground v.1.15,2014-03-03 02:40:00,
2014-03-02 20:45:00,19.1,15.1,30.32,NW,310,15.0,26.0,84,0.00,,,0.00,0,Wunderground v.1.15,2014-03-03 02:45:00,
2014-03-02 20:50:00,19.1,14.8,30.32,NNW,331,15.0,15.0,83,0.00,,,0.00,0,Wunderground v.1.15,2014-03-03 02:50:00,
2014-03-02 20:55:00,19.1,14.8,30.33,NNW,339,14.0,26.0,83,0.00,,,0.00,0,Wunderground v.1.15,2014-03-03 02:55:00,
2014-03-02 21:05:00,19.0,14.7,30.33,NW,317,14.0,21.0,83,0.00,,,0.00,0,Wunderground v.1.15,2014-03-03 03:05:00,
2014-03-02 21:10:00,19.0,14.4,30.33,NW,314,15.0,26.0,82,0.00,,,0.00,0,Wunderground v.1.15,2014-03-03 03:10:00,
2014-03-02 21:15:00,18.9,14.0,30.34,NNW,341,16.0,26.0,81,0.00,,,0.00,0,Wunderground v.1.15,2014-03-03 03:15:00,
2014-03-02 21:20:00,18.9,14.0,30.34,NW,306,15.0,15.0,81,0.00,,,0.00,0,Wunderground v.1.15,2014-03-03 03:20:00,
2014-03-02 21:25:00,18.8,13.7,30.35,West,273,16.0,16.0,80,0.00,,,0.00,0,Wunderground v.1.15,2014-03-03 03:25:00,
2014-03-02 21:30:00,18.7,13.3,30.35,NNW,344,17.0,26.0,79,0.00,,,0.00,0,Wunderground v.1.15,2014-03-03 03:30:00,
2014-03-02 21:35:00,18.7,13.6,30.35,NW,320,17.0,26.0,80,0.00,,,0.00,0,Wunderground v.1.15,2014-03-03 03:35:00,
2014-03-02 21:40:00,18.7,13.6,30.35,NW,320,15.0,26.0,80,0.00,,,0.00,0,Wunderground v.1.15,2014-03-03 03:40:00,
2014-03-02 21:50:00,18.8,13.7,30.35,NNW,336,15.0,26.0,80,0.00,,,0.00,0,Wunderground v.1.15,2014-03-03 03:50:00,
2014-03-02 21:55:00,18.8,13.7,30.36,NNW,342,15.0,26.0,80,0.00,,,0.00,0,Wunderground v.1.15,2014-03-03 03:55:00,
2014-03-02 22:00:00,18.8,13.7,30.36,NW,325,15.0,15.0,80,0.00,,,0.00,0,Wunderground v.1.15,2014-03-03 04:00:00,
2014-03-02 22:05:00,18.7,13.3,30.36,NNW,342,15.0,18.0,79,0.00,,,0.00,0,Wunderground v.1.15,2014-03-03 04:05:00,
2014-03-02 22:15:00,18.6,13.2,30.36,NNW,347,14.0,26.0,79,0.00,,,0.00,0,Wunderground v.1.15,2014-03-03 04:15:00,
2014-03-02 22:25:00,18.6,13.2,30.36,NW,324,12.0,26.0,79,0.00,,,0.00,0,Wunderground v.1.15,2014-03-03 04:25:00,
2014-03-02 22:30:00,18.6,13.5,30.36,North,9,13.0,13.0,80,0.00,,,0.00,0,Wunderground v.1.15,2014-03-03 04:30:00,
2014-03-02 22:35:00,18.7,13.6,30.36,NW,309,13.0,26.0,80,0.00,,,0.00,0,Wunderground v.1.15,2014-03-03 04:35:00,
2014-03-02 22:40:00,18.7,13.6,30.37,NNW,348,12.0,26.0,80,0.00,,,0.00,0,Wunderground v.1.15,2014-03-03 04:40:00,
2014-03-02 22:50:00,18.8,13.7,30.36,NW,318,13.0,26.0,80,0.00,,,0.00,0,Wunderground v.1.15,2014-03-03 04:50:00,
2014-03-02 23:00:00,18.6,13.2,30.37,North,355,15.0,26.0,79,0.00,,,0.00,0,Wunderground v.1.15,2014-03-03 05:00:00,
2014-03-02 23:05:00,18.5,13.4,30.37,NNE,25,14.0,26.0,80,0.00,,,0.00,0,Wunderground v.1.15,2014-03-03 05:05:00,
2014-03-02 23:10:00,18.4,13.0,30.38,West,275,15.0,15.0,79,0.00,,,0.00,0,Wunderground v.1.15,2014-03-03 05:10:00,
2014-03-02 23:15:00,18.3,12.9,30.39,NNW,334,17.0,19.0,79,0.00,,,0.00,0,Wunderground v.1.15,2014-03-03 05:15:00,
2014-03-02 23:20:00,18.2,12.8,30.39,NW,321,18.0,18.0,79,0.00,,,0.00,0,Wunderground v.1.15,2014-03-03 05:20:00,
2014-03-02 23:25:00,18.1,13.0,30.39,NNW,342,16.0,26.0,80,0.00,,,0.00,0,Wunderground v.1.15,2014-03-03 05:25:00,
2014-03-02 23:35:00,17.9,12.2,30.39,NW,326,15.0,16.0,78,0.00,,,0.00,0,Wunderground v.1.15,2014-03-03 05:35:00,
2014-03-02 23:40:00,17.7,12.0,30.39,NW,306,14.0,26.0,78,0.00,,,0.00,0,Wunderground v.1.15,2014-03-03 05:40:00,
2014-03-02 23:45:00,17.6,12.2,30.40,NNW,333,14.0,26.0,79,0.00,,,0.00,0,Wunderground v.1.15,2014-03-03 05:45:00,
2014-03-02 23:50:00,17.6,12.2,30.39,NW,313,14.0,26.0,79,0.00,,,0.00,0,Wunderground v.1.15,2014-03-03 05:50:00,
2014-03-02 23:55:00,17.5,12.1,30.39,North,355,14.0,26.0,79,0.00,,,0.00,0,Wunderground v.1.15,2014-03-03 05:55:00,